createdAt,value
2023-01-03T00:00:11.118Z,22.46
2023-01-03T00:01:11.067Z,18.62
2023-01-03T00:02:11.121Z,19.78
2023-01-03T00:03:11.065Z,18.74
2023-01-03T00:04:11.151Z,19.66
2023-01-03T00:05:11.074Z,21.36
2023-01-03T00:06:19.066Z,20.84
2023-01-03T00:07:11.077Z,16.74
2023-01-03T00:08:11.074Z,20.74
2023-01-03T00:09:11.087Z,17.80
2023-01-03T00:10:11.077Z,19.74
2023-01-03T00:11:20.064Z,21.52
2023-01-03T00:12:15.072Z,21.28
2023-01-03T00:13:11.067Z,19.94
2023-01-03T00:14:15.074Z,29.70
2023-01-03T00:15:11.067Z,23.90
2023-01-03T00:16:15.092Z,20.62
2023-01-03T00:17:11.252Z,25.36
2023-01-03T00:18:11.069Z,22.32
2023-01-03T00:19:11.067Z,20.36
2023-01-03T00:20:11.073Z,18.60
2023-01-03T00:21:11.096Z,19.28
2023-01-03T00:22:11.067Z,20.72
2023-01-03T00:23:11.065Z,21.50
2023-01-03T00:24:11.077Z,18.92
2023-01-03T00:25:11.075Z,26.62
2023-01-03T00:26:11.073Z,21.78
2023-01-03T00:27:11.073Z,24.96
2023-01-03T00:28:11.065Z,25.16
2023-01-03T00:29:11.066Z,21.94
2023-01-03T00:30:11.070Z,22.84
2023-01-03T00:31:11.181Z,21.12
2023-01-03T00:32:11.066Z,26.78
2023-01-03T00:33:11.074Z,20.40
2023-01-03T00:34:11.070Z,17.68
2023-01-03T00:35:11.069Z,18.88
2023-01-03T00:36:11.083Z,22.28
2023-01-03T00:37:11.071Z,19.94
2023-01-03T00:38:11.066Z,25.16
2023-01-03T00:39:11.079Z,21.82
2023-01-03T00:40:11.063Z,15.92
2023-01-03T00:41:13.072Z,20.46
2023-01-03T00:42:11.076Z,18.56
2023-01-03T00:43:15.066Z,17.30
2023-01-03T00:44:11.079Z,23.20
2023-01-03T00:45:11.871Z,23.26
2023-01-03T00:46:11.142Z,23.28
2023-01-03T00:47:11.076Z,28.88
2023-01-03T00:48:11.068Z,23.70
2023-01-03T00:49:11.066Z,22.62
2023-01-03T00:50:11.066Z,24.48
2023-01-03T00:51:15.085Z,24.96
2023-01-03T00:52:11.067Z,21.82
2023-01-03T00:53:11.067Z,19.72
2023-01-03T00:54:11.068Z,23.92
2023-01-03T00:55:11.069Z,21.96
2023-01-03T00:56:11.066Z,18.96
2023-01-03T00:57:11.067Z,22.70
2023-01-03T00:58:11.066Z,20.16
2023-01-03T00:59:11.086Z,25.34
2023-01-03T01:00:11.063Z,26.74
2023-01-03T01:01:17.196Z,28.62
2023-01-03T01:02:11.340Z,21.10
2023-01-03T01:03:11.312Z,26.46
2023-01-03T01:04:17.092Z,21.24
2023-01-03T01:05:11.056Z,24.26
2023-01-03T01:06:18.057Z,22.06
2023-01-03T01:07:11.057Z,19.72
2023-01-03T01:08:11.055Z,21.48
2023-01-03T01:09:12.064Z,23.54
2023-01-03T01:10:11.056Z,19.24
2023-01-03T01:11:11.061Z,20.66
2023-01-03T01:12:11.068Z,21.20
2023-01-03T01:13:11.059Z,22.44
2023-01-03T01:14:15.057Z,20.02
2023-01-03T01:15:11.069Z,15.08
2023-01-03T01:16:12.182Z,18.38
2023-01-03T01:17:11.060Z,18.34
2023-01-03T01:18:11.071Z,14.30
2023-01-03T01:19:11.055Z,17.86
2023-01-03T01:20:11.058Z,19.56
2023-01-03T01:21:14.063Z,25.34
2023-01-03T01:22:11.053Z,32.70
2023-01-03T01:23:11.059Z,23.00
2023-01-03T01:24:17.418Z,16.50
2023-01-03T01:25:13.610Z,17.92
2023-01-03T01:26:12.051Z,19.36
2023-01-03T01:27:11.066Z,14.62
2023-01-03T01:28:11.059Z,18.48
2023-01-03T01:29:11.054Z,15.94
2023-01-03T01:30:11.065Z,18.48
2023-01-03T01:31:13.139Z,19.82
2023-01-03T01:32:11.063Z,16.70
2023-01-03T01:33:11.064Z,14.74
2023-01-03T01:34:11.071Z,17.30
2023-01-03T01:35:11.062Z,17.90
2023-01-03T01:36:12.069Z,17.44
2023-01-03T01:37:11.083Z,13.74
2023-01-03T01:38:11.059Z,21.28
2023-01-03T01:39:16.056Z,13.88
2023-01-03T01:40:11.066Z,14.66
2023-01-03T01:41:15.075Z,19.50
2023-01-03T01:42:19.382Z,13.70
2023-01-03T01:43:22.280Z,15.56
2023-01-03T01:44:23.084Z,23.64
2023-01-03T01:45:15.079Z,17.34
2023-01-03T01:46:19.130Z,25.24
2023-01-03T01:47:19.067Z,15.50
2023-01-03T01:48:14.070Z,17.82
2023-01-03T01:49:14.054Z,15.92
2023-01-03T01:50:19.072Z,19.24
2023-01-03T01:51:11.094Z,11.50
2023-01-03T01:52:11.067Z,17.86
2023-01-03T01:53:19.066Z,17.76
2023-01-03T01:54:11.060Z,18.32
2023-01-03T01:55:12.070Z,20.32
2023-01-03T01:56:14.066Z,13.28
2023-01-03T01:57:12.065Z,19.68
2023-01-03T01:58:11.074Z,17.78
2023-01-03T01:59:11.061Z,15.76
2023-01-03T02:00:11.067Z,13.88
2023-01-03T02:01:12.164Z,17.16
2023-01-03T02:02:11.143Z,19.12
2023-01-03T02:03:11.172Z,17.30
2023-01-03T02:04:19.073Z,21.08
2023-01-03T02:05:11.087Z,15.54
2023-01-03T02:06:12.059Z,17.40
2023-01-03T02:07:11.057Z,16.24
2023-01-03T02:08:11.057Z,16.66
2023-01-03T02:09:11.066Z,14.94
2023-01-03T02:10:11.057Z,14.92
2023-01-03T02:11:19.056Z,12.72
2023-01-03T02:12:25.063Z,17.68
2023-01-03T02:13:17.067Z,14.46
2023-01-03T02:14:19.058Z,14.60
2023-01-03T02:15:19.056Z,11.74
2023-01-03T02:16:21.205Z,21.02
2023-01-03T02:17:21.077Z,16.02
2023-01-03T02:18:19.070Z,20.28
2023-01-03T02:19:21.062Z,15.42
2023-01-03T02:20:19.056Z,19.52
2023-01-03T02:21:21.058Z,11.98
2023-01-03T02:22:19.059Z,18.28
2023-01-03T02:23:19.073Z,13.04
2023-01-03T02:24:21.064Z,12.38
2023-01-03T02:25:19.059Z,12.86
2023-01-03T02:26:21.055Z,18.30
2023-01-03T02:27:19.058Z,12.86
2023-01-03T02:28:19.066Z,18.08
2023-01-03T02:29:19.061Z,10.74
2023-01-03T02:30:19.057Z,11.48
2023-01-03T02:31:19.087Z,14.36
2023-01-03T02:32:21.061Z,13.48
2023-01-03T02:33:21.070Z,9.20
2023-01-03T02:34:19.063Z,15.80
2023-01-03T02:35:19.056Z,9.14
2023-01-03T02:36:21.072Z,17.22
2023-01-03T02:37:21.065Z,9.56
2023-01-03T02:38:21.067Z,10.56
2023-01-03T02:39:23.401Z,13.14
2023-01-03T02:40:21.319Z,8.24
2023-01-03T02:41:21.069Z,7.90
2023-01-03T02:42:23.060Z,5.84
2023-01-03T02:43:21.064Z,10.02
2023-01-03T02:44:19.072Z,8.80
2023-01-03T02:45:14.073Z,7.92
2023-01-03T02:46:19.108Z,10.58
2023-01-03T02:47:14.058Z,15.58
2023-01-03T02:48:21.063Z,8.14
2023-01-03T02:49:12.060Z,11.30
2023-01-03T02:50:11.061Z,16.50
2023-01-03T02:51:18.073Z,7.46
2023-01-03T02:52:17.059Z,11.44
2023-01-03T02:53:12.059Z,10.42
2023-01-03T02:54:11.058Z,11.70
2023-01-03T02:55:19.065Z,12.40
2023-01-03T02:56:14.079Z,6.50
2023-01-03T02:57:13.060Z,6.98
2023-01-03T02:58:17.085Z,7.48
2023-01-03T02:59:14.073Z,15.02
2023-01-03T03:00:14.059Z,7.36
2023-01-03T03:01:12.098Z,4.50
2023-01-03T03:02:11.256Z,13.44
2023-01-03T03:03:15.218Z,9.72
2023-01-03T03:04:11.068Z,8.62
2023-01-03T03:05:18.069Z,11.44
2023-01-03T03:06:18.066Z,11.56
2023-01-03T03:07:18.065Z,8.92
2023-01-03T03:08:11.083Z,9.42
2023-01-03T03:09:11.075Z,13.24
2023-01-03T03:10:15.062Z,8.76
2023-01-03T03:11:15.072Z,12.10
2023-01-03T03:12:15.073Z,10.44
2023-01-03T03:13:22.060Z,9.72
2023-01-03T03:14:17.057Z,10.42
2023-01-03T03:15:11.066Z,13.40
2023-01-03T03:16:21.148Z,9.96
2023-01-03T03:17:14.060Z,9.16
2023-01-03T03:18:16.064Z,7.22
2023-01-03T03:19:19.068Z,17.56
2023-01-03T03:20:15.066Z,16.88
2023-01-03T03:21:16.067Z,12.16
2023-01-03T03:22:27.064Z,10.92
2023-01-03T03:23:18.063Z,10.92
2023-01-03T03:24:19.063Z,8.76
2023-01-03T03:25:19.069Z,8.74
2023-01-03T03:26:14.062Z,6.94
2023-01-03T03:27:16.068Z,8.84
2023-01-03T03:28:17.064Z,16.68
2023-01-03T03:29:16.074Z,10.18
2023-01-03T03:30:13.071Z,7.28
2023-01-03T03:31:16.162Z,14.12
2023-01-03T03:32:11.062Z,11.60
2023-01-03T03:33:11.064Z,13.40
2023-01-03T03:34:19.071Z,8.94
2023-01-03T03:35:12.083Z,7.28
2023-01-03T03:36:17.076Z,8.28
2023-01-03T03:37:18.083Z,12.60
2023-01-03T03:38:13.061Z,5.66
2023-01-03T03:39:11.061Z,10.66
2023-01-03T03:40:15.064Z,10.12
2023-01-03T03:41:23.064Z,13.14
2023-01-03T03:42:24.059Z,6.76
2023-01-03T03:43:22.065Z,8.92
2023-01-03T03:44:23.067Z,9.80
2023-01-03T03:45:18.066Z,7.34
2023-01-03T03:46:19.088Z,10.32
2023-01-03T03:47:19.101Z,11.84
2023-01-03T03:48:19.059Z,12.12
2023-01-03T03:49:17.063Z,12.66
2023-01-03T03:50:21.074Z,8.00
2023-01-03T03:51:14.067Z,5.24
2023-01-03T03:52:15.069Z,9.72
2023-01-03T03:53:11.066Z,10.62
2023-01-03T03:54:12.070Z,11.70
2023-01-03T03:55:15.063Z,8.62
2023-01-03T03:56:12.060Z,14.88
2023-01-03T03:57:18.091Z,9.66
2023-01-03T03:58:17.107Z,14.74
2023-01-03T03:59:11.068Z,10.62
2023-01-03T04:00:14.070Z,8.26
2023-01-03T04:01:12.140Z,11.40
2023-01-03T04:02:11.214Z,11.48
2023-01-03T04:03:11.235Z,9.20
2023-01-03T04:04:18.068Z,9.28
2023-01-03T04:05:11.079Z,9.36
2023-01-03T04:06:17.070Z,10.90
2023-01-03T04:07:11.066Z,11.48
2023-01-03T04:08:11.076Z,10.40
2023-01-03T04:09:11.065Z,11.48
2023-01-03T04:10:11.067Z,19.98
2023-01-03T04:11:11.077Z,12.86
2023-01-03T04:12:11.064Z,9.54
2023-01-03T04:13:11.065Z,8.32
2023-01-03T04:14:11.078Z,9.46
2023-01-03T04:15:11.095Z,13.56
2023-01-03T04:16:11.157Z,9.52
2023-01-03T04:17:11.074Z,10.52
2023-01-03T04:18:11.067Z,10.52
2023-01-03T04:19:11.079Z,14.20
2023-01-03T04:20:11.073Z,11.06
2023-01-03T04:21:15.598Z,11.10
2023-01-03T04:22:13.131Z,11.42
2023-01-03T04:23:11.076Z,12.82
2023-01-03T04:24:11.067Z,10.64
2023-01-03T04:25:11.070Z,9.94
2023-01-03T04:26:11.075Z,10.62
2023-01-03T04:27:11.069Z,10.10
2023-01-03T04:28:11.064Z,16.34
2023-01-03T04:29:11.075Z,9.78
2023-01-03T04:30:11.067Z,9.70
2023-01-03T04:31:11.158Z,10.60
2023-01-03T04:32:11.125Z,8.58
2023-01-03T04:33:11.070Z,13.68
2023-01-03T04:34:11.108Z,12.98
2023-01-03T04:35:11.072Z,11.76
2023-01-03T04:36:11.068Z,16.00
2023-01-03T04:37:11.065Z,11.12
2023-01-03T04:38:11.072Z,10.44
2023-01-03T04:39:11.082Z,13.74
2023-01-03T04:40:11.071Z,9.96
2023-01-03T04:41:11.069Z,7.64
2023-01-03T04:42:15.073Z,10.24
2023-01-03T04:43:15.074Z,12.84
2023-01-03T04:44:11.069Z,14.38
2023-01-03T04:45:11.075Z,11.56
2023-01-03T04:46:11.147Z,11.54
2023-01-03T04:47:11.068Z,13.26
2023-01-03T04:48:11.074Z,14.36
2023-01-03T04:49:11.067Z,14.08
2023-01-03T04:50:11.067Z,12.38
2023-01-03T04:51:11.072Z,14.00
2023-01-03T04:52:11.072Z,10.40
2023-01-03T04:53:11.067Z,11.28
2023-01-03T04:54:11.073Z,12.88
2023-01-03T04:55:11.071Z,14.88
2023-01-03T04:56:11.072Z,9.88
2023-01-03T04:57:11.070Z,11.20
2023-01-03T04:58:11.071Z,15.02
2023-01-03T04:59:11.076Z,10.12
2023-01-03T05:00:11.073Z,8.90
2023-01-03T05:01:11.218Z,11.32
2023-01-03T05:02:11.296Z,10.78
2023-01-03T05:03:11.080Z,15.66
2023-01-03T05:04:11.194Z,15.34
2023-01-03T05:05:11.071Z,12.92
2023-01-03T05:06:11.075Z,12.96
2023-01-03T05:07:11.075Z,13.02
2023-01-03T05:08:11.082Z,16.86
2023-01-03T05:09:11.071Z,19.02
2023-01-03T05:10:11.091Z,13.62
2023-01-03T05:11:11.126Z,13.34
2023-01-03T05:12:11.073Z,12.60
2023-01-03T05:13:11.076Z,17.68
2023-01-03T05:14:14.498Z,13.88
2023-01-03T05:15:11.074Z,18.76
2023-01-03T05:16:13.148Z,9.42
2023-01-03T05:17:11.068Z,10.92
2023-01-03T05:18:11.079Z,13.94
2023-01-03T05:19:11.088Z,12.74
2023-01-03T05:20:15.077Z,13.34
2023-01-03T05:21:18.073Z,13.16
2023-01-03T05:22:15.078Z,13.54
2023-01-03T05:23:15.083Z,14.16
2023-01-03T05:24:15.071Z,20.00
2023-01-03T05:25:15.068Z,14.74
2023-01-03T05:26:15.077Z,15.32
2023-01-03T05:27:11.076Z,16.76
2023-01-03T05:28:17.050Z,16.94
2023-01-03T05:29:13.255Z,16.70
2023-01-03T05:30:11.074Z,14.20
2023-01-03T05:31:11.081Z,20.76
2023-01-03T05:32:11.148Z,13.02
2023-01-03T05:33:11.071Z,14.74
2023-01-03T05:34:11.077Z,13.92
2023-01-03T05:35:11.068Z,12.56
2023-01-03T05:36:11.092Z,15.08
2023-01-03T05:37:11.093Z,13.40
2023-01-03T05:38:11.073Z,16.22
2023-01-03T05:39:11.076Z,12.56
2023-01-03T05:40:11.078Z,16.14
2023-01-03T05:41:12.085Z,14.80
2023-01-03T05:42:11.089Z,15.00
2023-01-03T05:43:11.082Z,13.88
2023-01-03T05:44:11.079Z,14.78
2023-01-03T05:45:11.069Z,15.22
2023-01-03T05:46:11.159Z,14.92
2023-01-03T05:47:11.072Z,19.44
2023-01-03T05:48:11.089Z,15.04
2023-01-03T05:49:11.075Z,19.34
2023-01-03T05:50:11.076Z,17.00
2023-01-03T05:51:11.072Z,15.96
2023-01-03T05:52:11.074Z,15.92
2023-01-03T05:53:11.074Z,15.98
2023-01-03T05:54:13.071Z,14.16
2023-01-03T05:55:11.072Z,20.68
2023-01-03T05:56:11.076Z,18.36
2023-01-03T05:57:11.070Z,13.66
2023-01-03T05:58:11.086Z,14.32
2023-01-03T05:59:11.081Z,15.48
2023-01-03T06:00:11.072Z,22.60
2023-01-03T06:01:11.139Z,14.56
2023-01-03T06:02:11.214Z,15.94
2023-01-03T06:03:11.106Z,16.20
2023-01-03T06:04:11.108Z,16.96
2023-01-03T06:05:11.076Z,11.86
2023-01-03T06:06:11.078Z,18.50
2023-01-03T06:07:11.072Z,16.56
2023-01-03T06:08:11.080Z,12.28
2023-01-03T06:09:11.080Z,16.54
2023-01-03T06:10:11.078Z,27.70
2023-01-03T06:11:12.082Z,14.16
2023-01-03T06:12:11.075Z,12.82
2023-01-03T06:13:11.083Z,18.40
2023-01-03T06:14:11.096Z,12.56
2023-01-03T06:15:11.076Z,16.68
2023-01-03T06:16:20.076Z,17.52
2023-01-03T06:17:17.405Z,18.56
2023-01-03T06:18:11.077Z,14.08
2023-01-03T06:19:11.100Z,14.46
2023-01-03T06:20:11.070Z,12.80
2023-01-03T06:21:11.077Z,13.34
2023-01-03T06:22:11.452Z,11.88
2023-01-03T06:23:11.077Z,12.34
2023-01-03T06:24:11.077Z,14.06
2023-01-03T06:25:11.082Z,15.44
2023-01-03T06:26:11.075Z,13.16
2023-01-03T06:27:11.073Z,14.52
2023-01-03T06:28:11.081Z,12.90
2023-01-03T06:29:11.077Z,17.58
2023-01-03T06:30:11.084Z,17.00
2023-01-03T06:31:11.152Z,18.62
2023-01-03T06:32:11.088Z,14.36
2023-01-03T06:33:11.074Z,19.62
2023-01-03T06:34:11.081Z,13.14
2023-01-03T06:35:11.084Z,14.74
2023-01-03T06:36:14.076Z,16.46
2023-01-03T06:37:11.089Z,17.74
2023-01-03T06:38:11.082Z,12.48
2023-01-03T06:39:11.075Z,13.48
2023-01-03T06:40:11.099Z,12.88
2023-01-03T06:41:11.088Z,13.20
2023-01-03T06:42:15.076Z,12.42
2023-01-03T06:43:11.076Z,19.56
2023-01-03T06:44:11.115Z,16.04
2023-01-03T06:45:15.084Z,9.34
2023-01-03T06:46:15.154Z,13.70
2023-01-03T06:47:15.080Z,13.76
2023-01-03T06:48:15.089Z,10.84
2023-01-03T06:49:19.082Z,17.80
2023-01-03T06:50:15.081Z,16.68
2023-01-03T06:51:16.081Z,14.54
2023-01-03T06:52:15.077Z,12.26
2023-01-03T06:53:15.094Z,15.32
2023-01-03T06:54:14.079Z,10.12
2023-01-03T06:55:11.076Z,13.52
2023-01-03T06:56:11.078Z,14.04
2023-01-03T06:57:11.081Z,11.70
2023-01-03T06:58:13.381Z,16.80
2023-01-03T06:59:11.076Z,13.88
2023-01-03T07:00:11.070Z,11.98
2023-01-03T07:01:12.220Z,15.46
2023-01-03T07:02:11.161Z,11.54
2023-01-03T07:03:11.796Z,15.22
2023-01-03T07:04:11.163Z,18.02
2023-01-03T07:05:11.061Z,15.04
2023-01-03T07:06:11.063Z,15.98
2023-01-03T07:07:11.065Z,14.12
2023-01-03T07:08:11.068Z,16.30
2023-01-03T07:09:11.069Z,13.08
2023-01-03T07:10:11.065Z,16.42
2023-01-03T07:11:11.083Z,18.16
2023-01-03T07:12:17.067Z,12.36
2023-01-03T07:13:15.078Z,12.64
2023-01-03T07:14:11.063Z,16.28
2023-01-03T07:15:11.064Z,14.66
2023-01-03T07:16:15.194Z,16.40
2023-01-03T07:17:11.073Z,14.36
2023-01-03T07:18:11.061Z,18.38
2023-01-03T07:19:16.069Z,14.92
2023-01-03T07:20:11.071Z,11.30
2023-01-03T07:21:11.068Z,15.32
2023-01-03T07:22:11.069Z,19.04
2023-01-03T07:23:11.073Z,17.22
2023-01-03T07:24:14.065Z,11.36
2023-01-03T07:25:11.063Z,12.98
2023-01-03T07:26:11.065Z,12.70
2023-01-03T07:27:11.066Z,14.46
2023-01-03T07:28:14.076Z,15.72
2023-01-03T07:29:11.070Z,12.86
2023-01-03T07:30:11.076Z,13.20
2023-01-03T07:31:11.093Z,13.32
2023-01-03T07:32:11.065Z,13.66
2023-01-03T07:33:11.129Z,11.92
2023-01-03T07:34:11.067Z,14.38
2023-01-03T07:35:11.069Z,10.60
2023-01-03T07:36:11.790Z,9.92
2023-01-03T07:37:11.066Z,15.06
2023-01-03T07:38:11.063Z,9.68
2023-01-03T07:39:11.102Z,10.98
2023-01-03T07:40:11.068Z,9.42
2023-01-03T07:41:12.064Z,11.00
2023-01-03T07:42:15.068Z,12.20
2023-01-03T07:43:15.075Z,8.92
2023-01-03T07:44:11.068Z,13.78
2023-01-03T07:45:11.083Z,17.74
2023-01-03T07:46:17.143Z,10.98
2023-01-03T07:47:11.072Z,13.08
2023-01-03T07:48:11.074Z,14.34
2023-01-03T07:49:12.021Z,17.04
2023-01-03T07:50:11.104Z,11.10
2023-01-03T07:51:11.071Z,15.12
2023-01-03T07:52:11.068Z,7.50
2023-01-03T07:53:11.078Z,12.52
2023-01-03T07:54:11.088Z,15.52
2023-01-03T07:55:11.063Z,12.34
2023-01-03T07:56:13.473Z,9.94
2023-01-03T07:57:11.067Z,14.78
2023-01-03T07:58:11.073Z,12.28
2023-01-03T07:59:11.067Z,9.02
2023-01-03T08:00:11.072Z,13.32
2023-01-03T08:01:14.280Z,9.06
2023-01-03T08:02:11.261Z,12.62
2023-01-03T08:03:11.767Z,9.02
2023-01-03T08:04:11.131Z,13.24
2023-01-03T08:05:11.104Z,13.32
2023-01-03T08:06:11.078Z,8.76
2023-01-03T08:07:11.063Z,8.42
2023-01-03T08:08:11.069Z,14.86
2023-01-03T08:09:15.077Z,10.28
2023-01-03T08:10:15.069Z,9.92
2023-01-03T08:11:16.066Z,13.54
2023-01-03T08:12:15.068Z,13.26
2023-01-03T08:13:15.085Z,11.68
2023-01-03T08:14:11.068Z,13.92
2023-01-03T08:15:11.071Z,8.82
2023-01-03T08:16:11.151Z,14.24
2023-01-03T08:17:11.071Z,6.18
2023-01-03T08:18:11.064Z,14.52
2023-01-03T08:19:11.076Z,10.02
2023-01-03T08:20:11.079Z,12.24
2023-01-03T08:21:11.065Z,9.06
2023-01-03T08:22:11.074Z,11.18
2023-01-03T08:23:11.074Z,11.36
2023-01-03T08:24:11.071Z,10.72
2023-01-03T08:25:11.072Z,9.84
2023-01-03T08:26:14.084Z,7.82
2023-01-03T08:27:11.068Z,12.28
2023-01-03T08:28:11.075Z,6.04
2023-01-03T08:29:11.076Z,7.50
2023-01-03T08:30:11.066Z,5.02
2023-01-03T08:31:19.120Z,15.44
2023-01-03T08:32:11.069Z,8.82
2023-01-03T08:33:12.077Z,9.72
2023-01-03T08:34:18.644Z,8.38
2023-01-03T08:35:14.012Z,8.54
2023-01-03T08:36:11.078Z,10.70
2023-01-03T08:37:11.126Z,13.44
2023-01-03T08:38:14.075Z,13.02
2023-01-03T08:39:15.106Z,12.24
2023-01-03T08:40:14.078Z,9.54
2023-01-03T08:41:11.068Z,9.48
2023-01-03T08:42:12.077Z,12.68
2023-01-03T08:43:11.079Z,10.70
2023-01-03T08:44:11.082Z,7.36
2023-01-03T08:45:13.072Z,4.76
2023-01-03T08:46:11.113Z,4.50
2023-01-03T08:47:11.140Z,17.66
2023-01-03T08:48:11.086Z,12.48
2023-01-03T08:49:11.073Z,8.52
2023-01-03T08:50:11.065Z,16.98
2023-01-03T08:51:11.070Z,4.04
2023-01-03T08:52:11.072Z,9.20
2023-01-03T08:53:11.072Z,9.84
2023-01-03T08:54:11.074Z,5.12
2023-01-03T08:55:11.076Z,4.74
2023-01-03T08:56:11.066Z,9.44
2023-01-03T08:57:11.071Z,7.60
2023-01-03T08:58:12.079Z,8.20
2023-01-03T08:59:11.070Z,12.90
2023-01-03T09:00:11.085Z,7.50
2023-01-03T09:01:11.150Z,4.20
2023-01-03T09:02:11.280Z,8.82
2023-01-03T09:03:11.339Z,5.66
2023-01-03T09:04:11.141Z,7.70
2023-01-03T09:05:11.078Z,7.12
2023-01-03T09:06:11.072Z,6.90
2023-01-03T09:07:11.080Z,8.82
2023-01-03T09:08:11.070Z,5.32
2023-01-03T09:09:11.071Z,5.48
2023-01-03T09:10:11.087Z,4.52
2023-01-03T09:11:11.097Z,5.64
2023-01-03T09:12:11.081Z,9.86
2023-01-03T09:13:11.081Z,13.52
2023-01-03T09:14:11.080Z,3.80
2023-01-03T09:15:11.079Z,7.90
2023-01-03T09:16:11.151Z,5.50
2023-01-03T09:17:11.078Z,6.04
2023-01-03T09:18:11.097Z,7.90
2023-01-03T09:19:11.079Z,7.02
2023-01-03T09:20:11.070Z,2.86
2023-01-03T09:21:11.085Z,10.94
2023-01-03T09:22:11.079Z,9.76
2023-01-03T09:23:11.086Z,5.04
2023-01-03T09:24:11.091Z,1.50
2023-01-03T09:25:11.073Z,2.74
2023-01-03T09:26:11.071Z,4.80
2023-01-03T09:27:11.077Z,12.62
2023-01-03T09:28:11.080Z,6.80
2023-01-03T09:29:11.071Z,5.18
2023-01-03T09:30:11.073Z,4.52
2023-01-03T09:31:11.154Z,4.88
2023-01-03T09:32:11.145Z,10.08
2023-01-03T09:33:11.072Z,5.52
2023-01-03T09:34:11.076Z,7.00
2023-01-03T09:35:11.071Z,9.14
2023-01-03T09:36:11.079Z,3.58
2023-01-03T09:37:11.081Z,7.90
2023-01-03T09:38:11.087Z,8.44
2023-01-03T09:39:11.074Z,3.60
2023-01-03T09:40:11.074Z,5.84
2023-01-03T09:41:17.073Z,5.54
2023-01-03T09:42:22.079Z,2.24
2023-01-03T09:43:25.276Z,7.56
2023-01-03T09:44:13.361Z,6.80
2023-01-03T09:45:16.078Z,5.96
2023-01-03T09:46:21.154Z,6.78
2023-01-03T09:47:18.190Z,7.30
2023-01-03T09:48:18.077Z,8.06
2023-01-03T09:49:12.072Z,6.10
2023-01-03T09:50:35.260Z,7.36
2023-01-03T09:51:29.196Z,3.88
2023-01-03T09:52:21.317Z,6.52
2023-01-03T09:53:24.083Z,4.42
2023-01-03T09:54:19.082Z,9.94
2023-01-03T09:55:23.077Z,4.32
2023-01-03T09:56:15.079Z,4.24
2023-01-03T09:57:26.276Z,5.04
2023-01-03T09:58:17.150Z,4.86
2023-01-03T09:59:18.075Z,6.06
2023-01-03T10:00:19.069Z,6.02
2023-01-03T10:01:22.242Z,5.10
2023-01-03T10:02:23.186Z,12.06
2023-01-03T10:03:23.113Z,7.78
2023-01-03T10:04:21.061Z,3.36
2023-01-03T10:05:19.122Z,4.22
2023-01-03T10:06:19.061Z,7.54
2023-01-03T10:07:21.066Z,11.30
2023-01-03T10:08:19.079Z,4.90
2023-01-03T10:09:21.060Z,8.96
2023-01-03T10:10:21.125Z,6.26
2023-01-03T10:11:15.120Z,6.50
2023-01-03T10:12:21.064Z,7.28
2023-01-03T10:13:21.060Z,14.10
2023-01-03T10:14:19.071Z,4.60
2023-01-03T10:15:19.072Z,7.08
2023-01-03T10:16:19.130Z,5.58
2023-01-03T10:17:19.068Z,5.38
2023-01-03T10:18:24.062Z,5.64
2023-01-03T10:19:19.065Z,7.60
2023-01-03T10:20:18.068Z,8.70
2023-01-03T10:21:19.070Z,12.26
2023-01-03T10:22:16.065Z,5.56
2023-01-03T10:23:11.079Z,13.04
2023-01-03T10:24:17.061Z,5.18
2023-01-03T10:25:14.082Z,5.42
2023-01-03T10:26:13.066Z,6.86
2023-01-03T10:27:15.081Z,7.68
2023-01-03T10:28:18.080Z,4.86
2023-01-03T10:29:11.072Z,3.66
2023-01-03T10:30:15.059Z,6.50
2023-01-03T10:31:21.097Z,7.28
2023-01-03T10:32:19.157Z,5.84
2023-01-03T10:33:19.069Z,2.82
2023-01-03T10:34:12.068Z,4.34
2023-01-03T10:35:18.069Z,5.04
2023-01-03T10:36:11.076Z,7.30
2023-01-03T10:37:17.070Z,5.56
2023-01-03T10:38:11.076Z,6.12
2023-01-03T10:39:11.068Z,4.76
2023-01-03T10:40:11.104Z,6.74
2023-01-03T10:41:19.064Z,7.22
2023-01-03T10:42:15.065Z,7.02
2023-01-03T10:43:15.108Z,2.84
2023-01-03T10:44:19.067Z,9.34
2023-01-03T10:45:18.091Z,5.74
2023-01-03T10:46:15.234Z,5.34
2023-01-03T10:47:11.069Z,7.62
2023-01-03T10:48:15.069Z,6.96
2023-01-03T10:49:27.341Z,5.10
2023-01-03T10:50:21.526Z,7.98
2023-01-03T10:51:19.075Z,7.28
2023-01-03T10:52:18.091Z,5.94
2023-01-03T10:53:12.061Z,7.44
2023-01-03T10:54:18.067Z,4.86
2023-01-03T10:55:14.102Z,7.82
2023-01-03T10:56:14.070Z,7.88
2023-01-03T10:57:15.064Z,8.42
2023-01-03T10:58:19.064Z,8.26
2023-01-03T10:59:21.073Z,8.84
2023-01-03T11:00:19.099Z,4.92
2023-01-03T11:01:21.145Z,9.06
2023-01-03T11:02:18.253Z,6.18
2023-01-03T11:03:16.345Z,10.04
2023-01-03T11:04:17.067Z,7.04
2023-01-03T11:05:11.062Z,6.10
2023-01-03T11:06:14.065Z,5.60
2023-01-03T11:07:15.075Z,5.46
2023-01-03T11:08:19.067Z,6.60
2023-01-03T11:09:12.065Z,8.66
2023-01-03T11:10:17.135Z,3.96
2023-01-03T11:11:19.069Z,4.28
2023-01-03T11:12:17.066Z,7.42
2023-01-03T11:13:19.098Z,5.54
2023-01-03T11:14:22.070Z,8.14
2023-01-03T11:15:23.067Z,3.08
2023-01-03T11:16:18.181Z,13.38
2023-01-03T11:17:14.129Z,7.84
2023-01-03T11:18:18.077Z,5.44
2023-01-03T11:19:16.066Z,4.64
2023-01-03T11:20:18.143Z,3.98
2023-01-03T11:21:19.064Z,4.78
2023-01-03T11:22:19.064Z,2.78
2023-01-03T11:23:20.073Z,6.94
2023-01-03T11:24:21.076Z,4.58
2023-01-03T11:25:19.075Z,4.80
2023-01-03T11:26:19.067Z,2.72
2023-01-03T11:27:19.066Z,2.76
2023-01-03T11:28:19.072Z,7.82
2023-01-03T11:29:21.076Z,1.58
2023-01-03T11:30:21.070Z,4.92
2023-01-03T11:31:19.116Z,7.68
2023-01-03T11:32:19.176Z,3.04
2023-01-03T11:33:29.086Z,3.90
2023-01-03T11:34:23.245Z,5.12
2023-01-03T11:35:24.460Z,3.12
2023-01-03T11:36:23.195Z,7.88
2023-01-03T11:37:19.068Z,3.94
2023-01-03T11:38:19.094Z,6.14
2023-01-03T11:39:26.601Z,7.10
2023-01-03T11:40:23.356Z,7.42
2023-01-03T11:41:19.082Z,3.90
2023-01-03T11:42:19.071Z,2.42
2023-01-03T11:43:19.068Z,5.18
2023-01-03T11:44:19.078Z,5.96
2023-01-03T11:45:19.088Z,2.54
2023-01-03T11:46:21.218Z,4.80
2023-01-03T11:47:19.073Z,14.02
2023-01-03T11:48:19.074Z,7.32
2023-01-03T11:49:19.086Z,4.42
2023-01-03T11:50:19.072Z,7.46
2023-01-03T11:51:19.098Z,6.72
2023-01-03T11:52:19.071Z,5.66
2023-01-03T11:53:19.069Z,5.38
2023-01-03T11:54:19.069Z,3.64
2023-01-03T11:55:19.081Z,3.82
2023-01-03T11:56:21.071Z,3.92
2023-01-03T11:57:21.070Z,1.68
2023-01-03T11:58:19.069Z,6.74
2023-01-03T11:59:21.078Z,3.70
2023-01-03T12:00:20.085Z,6.80
2023-01-03T12:01:19.149Z,5.30
2023-01-03T12:02:19.316Z,6.68
2023-01-03T12:03:21.124Z,5.72
2023-01-03T12:04:21.134Z,3.78
2023-01-03T12:05:19.073Z,10.46
2023-01-03T12:06:26.633Z,5.48
2023-01-03T12:07:47.589Z,3.66
2023-01-03T12:08:21.221Z,8.00
2023-01-03T12:09:19.073Z,7.16
2023-01-03T12:10:19.072Z,3.64
2023-01-03T12:11:19.067Z,7.62
2023-01-03T12:12:19.080Z,1.60
2023-01-03T12:13:23.835Z,8.46
2023-01-03T12:14:21.068Z,5.18
2023-01-03T12:15:21.068Z,5.18
2023-01-03T12:16:21.164Z,5.84
2023-01-03T12:17:19.079Z,4.36
2023-01-03T12:18:19.075Z,4.36
2023-01-03T12:19:19.071Z,4.10
2023-01-03T12:20:18.071Z,3.76
2023-01-03T12:21:19.076Z,3.60
2023-01-03T12:22:18.086Z,4.06
2023-01-03T12:23:21.077Z,4.72
2023-01-03T12:24:19.070Z,4.84
2023-01-03T12:25:21.078Z,7.48
2023-01-03T12:26:14.077Z,1.42
2023-01-03T12:27:17.077Z,4.88
2023-01-03T12:28:18.078Z,4.78
2023-01-03T12:29:20.068Z,7.08
2023-01-03T12:30:19.073Z,5.24
2023-01-03T12:31:19.184Z,4.58
2023-01-03T12:32:19.075Z,2.04
2023-01-03T12:33:21.073Z,5.24
2023-01-03T12:34:19.075Z,4.80
2023-01-03T12:35:19.086Z,3.50
2023-01-03T12:36:21.082Z,3.02
2023-01-03T12:37:19.076Z,6.90
2023-01-03T12:38:11.074Z,4.90
2023-01-03T12:39:19.078Z,5.70
2023-01-03T12:40:23.075Z,4.00
2023-01-03T12:41:19.707Z,6.90
2023-01-03T12:42:19.097Z,3.24
2023-01-03T12:43:18.084Z,4.32
2023-01-03T12:44:17.080Z,2.80
2023-01-03T12:45:19.080Z,3.76
2023-01-03T12:46:16.182Z,3.10
2023-01-03T12:47:19.175Z,3.82
2023-01-03T12:48:21.082Z,4.80
2023-01-03T12:49:21.080Z,4.96
2023-01-03T12:50:19.084Z,5.92
2023-01-03T12:51:15.099Z,4.16
2023-01-03T12:52:17.117Z,4.98
2023-01-03T12:53:19.091Z,2.32
2023-01-03T12:54:19.079Z,6.68
2023-01-03T12:55:19.082Z,2.44
2023-01-03T12:56:19.076Z,9.08
2023-01-03T12:57:19.077Z,8.94
2023-01-03T12:58:19.081Z,2.98
2023-01-03T12:59:19.089Z,3.78
2023-01-03T13:00:19.063Z,4.50
2023-01-03T13:01:18.236Z,7.00
2023-01-03T13:02:21.296Z,4.46
2023-01-03T13:03:18.236Z,6.98